Time;durP1;ratioP1;P1;durP2;ratioP2;P2;SDS_P1;SDS_P2;PMS_P1;PMS_P2;Temp;Humidity;BMP_temperature;BMP_pressure;BME280_temperature;BME280_humidity;BME280_pressure;Samples;Min_cycle;Max_cycle;Signal;HPM_P1;HPM_P2
2023/03/01 00:00:38;;;;;;;10.10;5.90;;;;;;;0.47;53.96;102931.75;6177723;22;97400;-50
2023/03/01 00:03:03;;;;;;;8.63;4.80;;;;;;;0.35;54.11;102940.09;6177885;22;96776;-49
2023/03/01 00:05:29;;;;;;;11.40;6.87;;;;;;;0.28;54.09;102933.81;6177313;22;97770;-50
2023/03/01 00:07:55;;;;;;;24.60;11.33;;;;;;;0.23;53.76;102934.13;6176422;22;97277;-50
2023/03/01 00:10:20;;;;;;;26.53;14.53;;;;;;;0.19;54.18;102936.78;6176809;22;97094;-50
2023/03/01 00:12:45;;;;;;;23.23;13.13;;;;;;;0.20;54.22;102932.16;6177251;22;96780;-50
2023/03/01 00:15:11;;;;;;;26.07;10.80;;;;;;;0.23;54.48;102928.72;6176262;22;105741;-50
2023/03/01 00:17:36;;;;;;;15.97;9.60;;;;;;;0.25;54.09;102937.25;6176981;22;97703;-50
2023/03/01 00:20:02;;;;;;;20.57;12.07;;;;;;;0.26;54.25;102928.78;6178067;22;96527;-50
2023/03/01 00:22:30;;;;;;;15.70;9.20;;;;;;;0.26;54.24;102933.41;6178323;22;96918;-50
2023/03/01 00:24:55;;;;;;;11.23;6.63;;;;;;;0.28;54.38;102929.19;6178109;22;97350;-50
2023/03/01 00:27:21;;;;;;;11.27;6.87;;;;;;;0.27;54.29;102929.53;6178243;22;96893;-50
2023/03/01 00:29:46;;;;;;;9.60;5.50;;;;;;;0.27;54.41;102929.53;6178867;22;96956;-50
2023/03/01 00:32:12;;;;;;;7.87;5.13;;;;;;;0.27;54.27;102932.25;6178864;22;97317;-50
2023/03/01 00:34:37;;;;;;;7.57;4.77;;;;;;;0.30;54.51;102928.81;6177456;22;97227;-50
2023/03/01 00:37:04;;;;;;;6.30;3.93;;;;;;;0.28;54.38;102931.09;6150735;22;101721;-50
2023/03/01 00:39:30;;;;;;;8.27;5.13;;;;;;;0.27;54.36;102927.63;6179138;22;96862;-50
2023/03/01 00:41:56;;;;;;;10.60;5.90;;;;;;;0.25;54.17;102929.91;6178383;22;97081;-50
2023/03/01 00:44:21;;;;;;;12.03;7.00;;;;;;;0.20;54.09;102932.91;6177282;22;97393;-50
2023/03/01 00:46:47;;;;;;;15.00;9.03;;;;;;;0.18;54.53;102926.31;6178000;22;96974;-50
2023/03/01 00:49:13;;;;;;;15.00;8.20;;;;;;;0.18;54.17;102923.59;6178348;22;96760;-50
2023/03/01 00:51:41;;;;;;;10.10;6.00;;;;;;;0.16;54.68;102920.47;6178786;22;96595;-50
2023/03/01 00:54:08;;;;;;;6.90;4.20;;;;;;;0.16;54.19;102926.69;6178185;22;97091;-50
2023/03/01 00:56:33;;;;;;;5.03;3.97;;;;;;;0.16;54.50;102929.38;6178042;22;96657;-50
2023/03/01 00:58:59;;;;;;;3.20;2.70;;;;;;;0.13;54.48;102937.47;6177563;22;96673;-50
2023/03/01 01:01:29;;;;;;;2.17;1.97;;;;;;;0.10;54.50;102930.84;6178735;22;96593;-50
2023/03/01 01:03:57;;;;;;;2.07;1.90;;;;;;;0.10;54.64;102925.44;6177760;22;97777;-50
2023/03/01 01:06:29;;;;;;;1.93;1.60;;;;;;;0.10;54.23;102914.63;6178128;22;97068;-50
2023/03/01 01:08:55;;;;;;;2.33;2.00;;;;;;;0.08;54.23;102918.81;6178408;22;96484;-50
2023/03/01 01:11:22;;;;;;;2.00;1.90;;;;;;;0.08;54.39;102914.19;6178731;22;97098;-50
2023/03/01 01:13:48;;;;;;;3.80;2.70;;;;;;;0.03;54.30;102905.59;6177766;22;97744;-50
2023/03/01 01:16:16;;;;;;;3.60;2.53;;;;;;;0.03;54.79;102905.59;6178972;22;96980;-50
2023/03/01 01:18:41;;;;;;;3.40;2.30;;;;;;;0.03;54.41;102898.28;6177884;22;97232;-50
2023/03/01 01:21:12;;;;;;;4.13;2.40;;;;;;;0.03;54.28;102902.91;6178598;22;97644;-50
2023/03/01 01:23:39;;;;;;;3.70;2.13;;;;;;;-0.02;54.33;102898.56;6176875;22;97165;-50
2023/03/01 01:26:32;;;;;;;3.20;2.57;;;;;;;-0.09;55.06;102895.78;6178024;22;97198;-50
2023/03/01 01:28:57;;;;;;;3.80;2.30;;;;;;;-0.11;54.68;102884.56;6172025;22;97043;-50
2023/03/01 01:31:24;;;;;;;3.60;2.30;;;;;;;-0.10;54.47;102894.22;6177786;22;97191;-50
2023/03/01 01:33:50;;;;;;;2.40;2.20;;;;;;;-0.11;54.73;102896.13;6178146;22;97037;-50
2023/03/01 01:36:16;;;;;;;2.40;2.00;;;;;;;-0.14;54.28;102896.88;6178068;22;96636;-50
2023/03/01 01:38:42;;;;;;;1.97;1.87;;;;;;;-0.16;54.18;102896.47;6175300;22;97358;-50
2023/03/01 01:41:08;;;;;;;2.40;1.70;;;;;;;-0.23;54.31;102890.16;6175391;22;96887;-50
2023/03/01 01:43:40;;;;;;;2.10;1.80;;;;;;;-0.32;54.35;102889.63;6174673;22;97115;-50
2023/03/01 01:46:13;;;;;;;2.27;1.50;;;;;;;-0.39;54.58;102894.91;6174386;22;98322;-50
2023/03/01 01:48:53;;;;;;;2.00;1.60;;;;;;;-0.38;54.92;102891.84;6174747;22;97000;-50
2023/03/01 01:51:25;;;;;;;2.30;1.67;;;;;;;-0.34;54.43;102889.19;6175115;22;96603;-50
2023/03/01 01:53:55;;;;;;;1.33;1.20;;;;;;;-0.38;54.66;102877.56;6147779;22;100634;-50
2023/03/01 01:56:23;;;;;;;1.50;1.40;;;;;;;-0.36;54.45;102884.16;6175202;22;97603;-50
2023/03/01 01:58:49;;;;;;;1.20;1.10;;;;;;;-0.35;54.47;102883.00;6174755;22;97107;-50
2023/03/01 02:01:15;;;;;;;1.70;1.60;;;;;;;-0.37;54.24;102871.03;6175435;22;96996;-50
2023/03/01 02:03:44;;;;;;;2.07;1.43;;;;;;;-0.41;54.58;102892.56;6174439;22;97319;-50
2023/03/01 02:06:21;;;;;;;2.83;1.70;;;;;;;-0.44;54.72;102874.38;6175281;22;97517;-50
2023/03/01 02:08:50;;;;;;;1.43;1.33;;;;;;;-0.48;54.46;102876.22;6174647;22;97147;-50
2023/03/01 02:11:17;;;;;;;1.70;1.60;;;;;;;-0.51;54.89;102882.38;6174963;22;96970;-50
2023/03/01 02:13:43;;;;;;;1.20;1.10;;;;;;;-0.53;54.61;102876.56;6174412;22;97711;-50
2023/03/01 02:16:11;;;;;;;1.97;1.30;;;;;;;-0.54;54.89;102872.28;6174384;22;98015;-50
2023/03/01 02:18:38;;;;;;;1.33;1.27;;;;;;;-0.56;54.67;102869.16;6174840;22;96585;-50
2023/03/01 02:21:33;;;;;;;2.10;1.90;;;;;;;-0.54;55.22;102874.19;6174796;22;97264;-50
2023/03/01 02:24:05;;;;;;;1.57;1.47;;;;;;;-0.61;54.75;102872.16;6174475;22;97139;-50
2023/03/01 02:26:40;;;;;;;1.50;1.40;;;;;;;-0.61;54.82;102872.16;6174713;22;97148;-50
2023/03/01 02:29:06;;;;;;;1.37;1.27;;;;;;;-0.63;54.89;102874.44;6175393;22;97152;-50
2023/03/01 02:31:44;;;;;;;1.63;1.30;;;;;;;-0.64;54.67;102867.50;6175267;22;97093;-50
2023/03/01 02:34:16;;;;;;;2.20;1.40;;;;;;;-0.66;54.55;102869.78;6174749;22;97153;-50
2023/03/01 02:36:49;;;;;;;2.27;1.70;;;;;;;-0.78;55.11;102864.53;6174024;22;96676;-50
2023/03/01 02:39:24;;;;;;;1.60;1.47;;;;;;;-0.82;55.07;102867.19;6173976;22;96936;-50
2023/03/01 02:41:53;;;;;;;1.63;1.53;;;;;;;-0.78;55.28;102869.94;6174815;22;97111;-50
2023/03/01 02:44:20;;;;;;;2.03;1.40;;;;;;;-0.77;55.18;102874.22;6175089;22;96991;-50
2023/03/01 02:46:53;;;;;;;1.20;1.10;;;;;;;-0.78;55.01;102864.53;6174404;22;97166;-50
2023/03/01 02:49:22;;;;;;;1.73;1.63;;;;;;;-0.79;54.81;102857.59;6174962;22;97204;-50
2023/03/01 02:52:24;;;;;;;1.57;1.30;;;;;;;-0.82;55.33;102852.88;6174370;22;96803;-50
2023/03/01 02:54:52;;;;;;;1.67;1.40;;;;;;;-0.85;54.78;102840.09;6174415;22;96865;-50
2023/03/01 02:57:19;;;;;;;2.23;1.50;;;;;;;-0.86;55.08;102835.84;6174522;22;97263;-50
2023/03/01 02:59:44;;;;;;;2.00;1.50;;;;;;;-0.86;54.82;102835.84;6174719;22;96913;-50
2023/03/01 03:02:37;;;;;;;1.73;1.63;;;;;;;-0.85;55.18;102835.47;6174667;22;96899;-50
2023/03/01 03:05:14;;;;;;;2.50;1.30;;;;;;;-0.88;55.03;102830.03;6173484;22;97344;-50
2023/03/01 03:07:42;;;;;;;1.43;1.33;;;;;;;-0.90;54.99;102832.31;6147104;22;100199;-50
2023/03/01 03:10:11;;;;;;;1.77;1.37;;;;;;;-0.93;54.71;102819.50;6175143;22;96741;-50
2023/03/01 03:12:37;;;;;;;1.70;1.60;;;;;;;-1.01;54.88;102817.81;6175214;22;97828;-50
2023/03/01 03:15:08;;;;;;;1.73;1.40;;;;;;;-1.04;54.77;102810.44;6172308;22;97461;-50
2023/03/01 03:17:37;;;;;;;1.53;1.43;;;;;;;-1.05;54.96;102814.28;6173963;22;97208;-50
2023/03/01 03:20:04;;;;;;;2.47;1.53;;;;;;;-1.08;54.75;102815.00;6175058;22;97258;-50
2023/03/01 03:22:30;;;;;;;1.77;1.30;;;;;;;-1.09;55.11;102819.59;6175105;22;96956;-50
2023/03/01 03:24:55;;;;;;;1.23;1.10;;;;;;;-1.08;55.08;102804.19;6174314;22;97212;-50
2023/03/01 03:27:21;;;;;;;1.57;1.47;;;;;;;-1.09;55.10;102803.41;6173276;22;100933;-50
2023/03/01 03:29:46;;;;;;;2.57;2.30;;;;;;;-1.08;55.35;102809.59;6172325;22;96699;-50
2023/03/01 03:32:11;;;;;;;1.40;1.30;;;;;;;-1.09;55.36;102816.91;6173921;22;96952;-50
2023/03/01 03:34:37;;;;;;;1.17;1.17;;;;;;;-1.07;55.15;102805.78;6173354;22;109687;-50
2023/03/01 03:37:02;;;;;;;1.37;1.20;;;;;;;-1.09;55.10;102811.50;6173894;22;97130;-50
2023/03/01 03:39:28;;;;;;;1.53;1.43;;;;;;;-1.13;55.13;102812.59;6174699;22;96922;-50
2023/03/01 03:41:55;;;;;;;2.07;1.60;;;;;;;-1.14;55.34;102809.13;6174523;22;96702;-50
2023/03/01 03:44:21;;;;;;;4.37;1.97;;;;;;;-1.14;55.08;102800.25;6174266;22;97176;-50
2023/03/01 03:46:46;;;;;;;1.67;1.40;;;;;;;-1.22;55.09;102806.66;6174795;22;97171;-50
2023/03/01 03:49:12;;;;;;;1.87;1.43;;;;;;;-1.30;55.31;102810.34;6174123;22;97212;-50
2023/03/01 03:51:37;;;;;;;1.40;1.30;;;;;;;-1.28;55.29;102805.38;6174199;22;97032;-50
2023/03/01 03:54:02;;;;;;;1.63;1.53;;;;;;;-1.26;55.10;102803.09;6173736;22;97277;-50
2023/03/01 03:56:28;;;;;;;2.50;1.60;;;;;;;-1.24;55.24;102806.22;6173816;22;96507;-50
2023/03/01 03:58:53;;;;;;;1.50;1.40;;;;;;;-1.21;55.50;102805.50;6174089;22;97089;-50
2023/03/01 04:01:19;;;;;;;1.40;1.30;;;;;;;-1.18;55.51;102808.25;6173961;22;97011;-50
2023/03/01 04:03:46;;;;;;;1.47;1.40;;;;;;;-1.18;55.49;102802.84;6173307;22;112695;-50
2023/03/01 04:06:14;;;;;;;1.97;1.60;;;;;;;-1.18;55.28;102802.84;6173524;22;97836;-50
2023/03/01 04:08:40;;;;;;;1.70;1.60;;;;;;;-1.20;55.27;102802.44;6174485;22;97317;-50
2023/03/01 04:13:52;;;;;;;3.33;1.90;;;;;;;-1.27;55.51;102796.16;6174605;22;96728;-50
2023/03/01 04:16:18;;;;;;;2.80;1.60;;;;;;;-1.30;55.56;102794.94;6174041;22;97443;-50
2023/03/01 04:18:44;;;;;;;1.70;1.60;;;;;;;-1.28;55.34;102803.47;6172968;22;96925;-50
2023/03/01 04:21:11;;;;;;;1.30;1.20;;;;;;;-1.28;55.25;102816.16;6174146;22;97047;-50
2023/03/01 04:23:36;;;;;;;2.00;1.80;;;;;;;-1.28;55.50;102803.47;6171717;22;96921;-50
2023/03/01 04:26:02;;;;;;;2.53;1.50;;;;;;;-1.26;55.75;102808.50;6173677;22;97309;-50
2023/03/01 04:28:29;;;;;;;1.63;1.53;;;;;;;-1.25;55.57;102804.66;6174032;22;96873;-50
2023/03/01 04:30:57;;;;;;;1.60;1.50;;;;;;;-1.28;55.41;102811.56;6173847;22;96988;-50
2023/03/01 04:33:24;;;;;;;2.50;1.70;;;;;;;-1.29;55.26;102810.00;6173911;22;97298;-50
2023/03/01 04:35:49;;;;;;;2.30;1.40;;;;;;;-1.32;55.58;102805.31;6173902;22;97167;-50
2023/03/01 04:38:21;;;;;;;2.30;2.10;;;;;;;-1.32;55.34;102804.53;6174423;22;96870;-50
2023/03/01 04:40:46;;;;;;;3.20;1.63;;;;;;;-1.37;55.44;102799.41;6171686;22;96629;-50
2023/03/01 04:43:16;;;;;;;2.50;1.83;;;;;;;-1.38;55.75;102805.97;6173302;22;97264;-50
2023/03/01 04:45:41;;;;;;;1.40;1.30;;;;;;;-1.38;55.69;102808.66;6172371;22;96915;-50
2023/03/01 04:48:07;;;;;;;1.73;1.53;;;;;;;-1.40;55.65;102803.63;6170300;22;96992;-50
2023/03/01 04:50:32;;;;;;;2.23;1.70;;;;;;;-1.41;55.81;102803.97;6171074;22;97373;-50
2023/03/01 04:52:58;;;;;;;1.93;1.83;;;;;;;-1.49;55.68;102810.38;6170282;22;97826;-50
2023/03/01 04:55:27;;;;;;;1.80;1.70;;;;;;;-1.47;55.81;102802.72;6171141;22;98352;-51
2023/03/01 04:57:54;;;;;;;1.73;1.63;;;;;;;-1.49;55.77;102807.69;6171209;22;96927;-50
2023/03/01 05:00:19;;;;;;;2.23;1.57;;;;;;;-1.50;55.70;102806.91;6173389;22;96927;-50
2023/03/01 05:02:55;;;;;;;1.90;1.70;;;;;;;-1.52;55.79;102804.56;6172988;22;97359;-51
2023/03/01 05:05:26;;;;;;;1.50;1.40;;;;;;;-1.52;55.76;102801.06;6172812;22;97102;-50
2023/03/01 05:07:54;;;;;;;2.03;1.50;;;;;;;-1.55;55.95;102797.16;6172308;22;97124;-50
2023/03/01 05:10:19;;;;;;;5.87;1.50;;;;;;;-1.59;55.78;102809.81;6174103;22;97061;-50
2023/03/01 05:12:44;;;;;;;1.77;1.67;;;;;;;-1.61;55.78;102803.22;6174584;22;96849;-50
2023/03/01 05:15:10;;;;;;;3.37;1.47;;;;;;;-1.62;55.58;102798.97;6173923;22;96991;-50
2023/03/01 05:17:35;;;;;;;2.07;1.90;;;;;;;-1.66;55.64;102796.19;6173686;22;96909;-50
2023/03/01 05:20:03;;;;;;;2.50;1.80;;;;;;;-1.69;55.50;102796.13;6174972;22;97011;-50
2023/03/01 05:22:29;;;;;;;2.10;1.90;;;;;;;-1.70;55.57;102795.34;6174441;22;96907;-50
2023/03/01 05:24:54;;;;;;;2.60;2.40;;;;;;;-1.70;55.73;102797.25;6174986;22;96906;-50
2023/03/01 05:27:21;;;;;;;1.93;1.77;;;;;;;-1.70;55.51;102795.34;6174653;22;97575;-50
2023/03/01 05:29:47;;;;;;;3.00;2.23;;;;;;;-1.70;55.57;102795.34;6175405;22;96816;-50
2023/03/01 05:32:15;;;;;;;3.07;1.87;;;;;;;-1.71;55.59;102787.59;6173999;22;97114;-50
2023/03/01 05:34:41;;;;;;;3.47;2.10;;;;;;;-1.71;55.55;102790.31;6175232;22;97263;-50
2023/03/01 05:37:07;;;;;;;1.87;1.77;;;;;;;-1.77;55.80;102787.09;6174800;22;96492;-50
2023/03/01 05:39:33;;;;;;;2.33;2.13;;;;;;;-1.76;55.72;102785.19;6175834;22;96997;-50
2023/03/01 05:42:00;;;;;;;5.97;3.00;;;;;;;-1.76;55.62;102788.66;6174147;22;97066;-50
2023/03/01 05:44:27;;;;;;;2.83;2.40;;;;;;;-1.87;55.47;102787.66;6172662;22;97288;-50
2023/03/01 05:46:54;;;;;;;2.13;1.93;;;;;;;-2.00;55.59;102782.75;6174974;22;97214;-50
2023/03/01 05:49:19;;;;;;;3.13;2.30;;;;;;;-2.02;55.77;102791.22;6175759;22;97194;-50
2023/03/01 05:51:49;;;;;;;4.60;2.00;;;;;;;-1.99;55.89;102795.91;6174438;22;101863;-50
2023/03/01 05:54:15;;;;;;;2.03;1.83;;;;;;;-1.99;55.74;102787.03;6147488;22;100194;-50
2023/03/01 05:56:41;;;;;;;2.30;2.10;;;;;;;-1.97;56.10;102800.94;6174539;22;96643;-50
2023/03/01 05:59:06;;;;;;;2.77;2.43;;;;;;;-1.99;56.02;102798.59;6174860;22;97308;-50
2023/03/01 06:01:32;;;;;;;1.50;1.40;;;;;;;-2.04;55.78;102790.78;6175170;22;97187;-50
2023/03/01 06:03:57;;;;;;;4.50;1.97;;;;;;;-2.11;55.84;102797.94;6174598;22;97632;-50
2023/03/01 06:06:24;;;;;;;2.27;1.97;;;;;;;-2.17;55.90;102797.44;6148065;22;97156;-50
2023/03/01 06:08:50;;;;;;;3.27;1.70;;;;;;;-2.25;55.94;102797.63;6174900;22;97274;-50
2023/03/01 06:11:16;;;;;;;2.77;2.50;;;;;;;-2.29;56.02;102800.25;6174692;22;96564;-50
2023/03/01 06:13:44;;;;;;;4.57;1.70;;;;;;;-2.31;56.08;102800.59;6175640;22;104365;-50
2023/03/01 06:16:10;;;;;;;2.60;1.60;;;;;;;-2.38;55.97;102813.91;6175089;22;96660;-50
2023/03/01 06:18:36;;;;;;;2.70;2.47;;;;;;;-2.42;56.33;102806.88;6174095;22;96728;-50
2023/03/01 06:21:03;;;;;;;2.10;2.00;;;;;;;-2.46;56.20;102798.72;6173821;22;97491;-50
2023/03/01 06:23:28;;;;;;;2.90;2.13;;;;;;;-2.50;56.08;102805.94;6174579;22;96551;-50
2023/03/01 06:25:54;;;;;;;3.13;1.90;;;;;;;-2.57;56.37;102799.59;6175035;22;97259;-50
2023/03/01 06:28:19;;;;;;;2.30;2.10;;;;;;;-2.64;56.33;102799.44;6174636;22;96778;-50
2023/03/01 06:30:44;;;;;;;2.40;1.87;;;;;;;-2.65;56.45;102797.88;6174566;22;97249;-50
2023/03/01 06:33:10;;;;;;;2.70;2.10;;;;;;;-2.65;56.61;102801.38;6173863;22;105355;-50
2023/03/01 06:35:35;;;;;;;2.20;2.00;;;;;;;-2.59;56.70;102809.94;6175304;22;97182;-50
2023/03/01 06:38:03;;;;;;;2.13;1.93;;;;;;;-2.51;56.34;102804.38;6175052;22;96658;-50
2023/03/01 06:40:30;;;;;;;3.57;2.20;;;;;;;-2.48;56.53;102800.19;6174729;22;97413;-50
2023/03/01 06:42:56;;;;;;;2.90;2.10;;;;;;;-2.43;56.59;102805.31;6173983;22;98254;-50
2023/03/01 06:45:21;;;;;;;5.90;2.20;;;;;;;-2.39;56.47;102806.19;6174738;22;97288;-50
2023/03/01 06:47:47;;;;;;;1.50;1.40;;;;;;;-2.34;56.40;102798.59;6174642;22;97126;-50
2023/03/01 06:50:13;;;;;;;1.80;1.70;;;;;;;-2.25;56.36;102800.34;6174056;22;97262;-50
2023/03/01 06:52:39;;;;;;;1.63;1.53;;;;;;;-2.15;56.33;102800.56;6174531;22;97282;-50
2023/03/01 06:55:05;;;;;;;3.20;2.40;;;;;;;-2.08;56.46;102800.72;6175041;22;96947;-50
2023/03/01 06:57:30;;;;;;;1.87;1.77;;;;;;;-2.00;56.30;102815.13;6175072;22;97174;-50
2023/03/01 06:59:55;;;;;;;3.30;2.30;;;;;;;-1.93;56.25;102794.50;6173170;22;99491;-50
2023/03/01 07:02:21;;;;;;;2.80;2.10;;;;;;;-1.87;56.11;102792.28;6173979;22;98019;-50
2023/03/01 07:04:48;;;;;;;2.03;1.83;;;;;;;-1.80;56.18;102789.72;6175181;22;97277;-51
2023/03/01 07:07:14;;;;;;;1.83;1.73;;;;;;;-1.76;56.38;102791.38;6174106;22;96616;-50
2023/03/01 07:09:39;;;;;;;2.33;2.07;;;;;;;-1.70;56.09;102792.63;6174261;22;97261;-50
2023/03/01 07:12:05;;;;;;;3.50;2.00;;;;;;;-1.69;56.10;102786.13;6174367;22;97065;-50
2023/03/01 07:14:30;;;;;;;3.10;2.70;;;;;;;-1.66;56.14;102790.78;6175251;22;96693;-50
2023/03/01 07:16:55;;;;;;;2.27;2.07;;;;;;;-1.59;56.40;102790.94;6174143;22;98615;-50
2023/03/01 07:19:22;;;;;;;2.50;2.17;;;;;;;-1.56;56.11;102784.81;6174790;22;97210;-50
2023/03/01 07:21:47;;;;;;;2.33;2.13;;;;;;;-1.49;56.31;102792.28;6174362;22;97452;-50
2023/03/01 07:24:13;;;;;;;2.27;2.07;;;;;;;-1.40;56.33;102792.06;6175479;22;97171;-51
2023/03/01 07:26:38;;;;;;;1.97;1.87;;;;;;;-1.29;56.38;102782.22;6175146;22;96772;-50
2023/03/01 07:29:05;;;;;;;2.67;2.47;;;;;;;-1.18;56.48;102781.25;6173633;22;97215;-50
2023/03/01 07:31:31;;;;;;;2.93;2.27;;;;;;;-1.08;56.52;102788.00;6173806;22;97195;-50
2023/03/01 07:33:56;;;;;;;3.03;2.30;;;;;;;-0.99;56.37;102785.84;6174153;22;96881;-50
2023/03/01 07:36:22;;;;;;;2.23;2.00;;;;;;;-0.93;56.34;102782.47;6174810;22;96911;-50
2023/03/01 07:38:48;;;;;;;2.97;2.33;;;;;;;-0.87;55.95;102799.94;6174265;22;97337;-50
2023/03/01 07:41:14;;;;;;;3.03;2.40;;;;;;;-0.82;56.18;102777.22;6174226;22;97127;-50
2023/03/01 07:43:39;;;;;;;3.47;2.70;;;;;;;-0.75;56.46;102780.06;6174682;22;96736;-50
2023/03/01 07:46:04;;;;;;;4.20;3.17;;;;;;;-0.68;56.34;102784.78;6174483;22;97088;-50
2023/03/01 07:48:31;;;;;;;2.63;2.30;;;;;;;-0.62;56.39;102772.50;6173843;22;97177;-51
2023/03/01 07:51:01;;;;;;;3.47;2.87;;;;;;;-0.54;56.44;102779.56;6173872;22;98365;-51
2023/03/01 07:53:27;;;;;;;2.60;2.37;;;;;;;-0.51;56.29;102774.25;6175121;22;97446;-50
2023/03/01 07:56:08;;;;;;;3.20;2.90;;;;;;;-0.46;56.36;102776.63;6174429;22;96706;-50
2023/03/01 07:58:42;;;;;;;3.37;2.90;;;;;;;-0.41;56.62;102778.22;6172893;22;97391;-50
2023/03/01 08:01:10;;;;;;;2.40;2.20;;;;;;;-0.41;56.40;102781.72;6173885;22;97495;-50
2023/03/01 08:03:36;;;;;;;3.00;2.53;;;;;;;-0.36;56.66;102786.03;6174697;22;96966;-50
2023/03/01 08:06:04;;;;;;;2.50;2.30;;;;;;;-0.28;56.52;102783.06;6173855;22;96755;-50
2023/03/01 08:08:30;;;;;;;2.17;2.00;;;;;;;-0.18;56.73;102785.16;6174283;22;98232;-50
2023/03/01 08:11:00;;;;;;;2.40;2.20;;;;;;;-0.10;56.39;102775.97;6146418;22;97147;-50
2023/03/01 08:13:26;;;;;;;2.80;2.50;;;;;;;0.03;56.41;102773.81;6174667;22;97099;-51
2023/03/01 08:15:52;;;;;;;2.60;2.30;;;;;;;0.15;56.50;102768.16;6175468;22;97499;-49
2023/03/01 08:18:18;;;;;;;2.60;2.40;;;;;;;0.25;56.68;102766.72;6173534;22;96830;-49
2023/03/01 08:20:44;;;;;;;3.60;2.73;;;;;;;0.38;56.61;102765.31;6173317;22;97179;-49
2023/03/01 08:23:09;;;;;;;3.10;2.30;;;;;;;0.51;56.45;102761.19;6173614;22;96581;-49
2023/03/01 08:25:35;;;;;;;4.23;3.47;;;;;;;0.65;56.53;102764.06;6174189;22;97147;-49
2023/03/01 08:28:00;;;;;;;5.03;3.50;;;;;;;0.77;56.68;102750.22;6173587;22;97053;-49
2023/03/01 08:30:26;;;;;;;4.13;3.20;;;;;;;0.89;56.33;102766.22;6173303;22;104336;-49
2023/03/01 08:32:51;;;;;;;5.40;3.30;;;;;;;1.01;56.59;102759.72;6174300;22;96988;-49
2023/03/01 08:35:17;;;;;;;4.00;3.47;;;;;;;1.12;56.58;102755.94;6174268;22;97245;-52
2023/03/01 08:37:42;;;;;;;4.63;3.90;;;;;;;1.23;56.70;102762.22;6173184;22;96986;-49
2023/03/01 08:40:09;;;;;;;7.90;4.23;;;;;;;1.36;56.92;102760.78;6174504;22;97001;-49
2023/03/01 08:42:36;;;;;;;5.40;3.43;;;;;;;1.45;56.70;102758.50;6175566;22;97195;-49
2023/03/01 08:45:02;;;;;;;4.43;3.50;;;;;;;1.51;56.89;102754.28;6175730;22;97267;-49
2023/03/01 08:47:27;;;;;;;4.73;3.83;;;;;;;1.63;56.68;102747.78;6173982;22;97375;-48
2023/03/01 08:49:53;;;;;;;4.87;3.80;;;;;;;1.75;57.11;102760.25;6174645;22;104734;-49
2023/03/01 08:52:20;;;;;;;3.80;3.40;;;;;;;1.83;57.22;102759.91;6174928;22;97059;-49
2023/03/01 08:54:47;;;;;;;4.37;3.47;;;;;;;1.98;57.18;102763.44;6175741;22;97050;-49
2023/03/01 08:57:12;;;;;;;5.63;3.90;;;;;;;2.09;57.41;102756.91;6174718;22;96929;-49
2023/03/01 08:59:38;;;;;;;4.73;3.77;;;;;;;2.20;57.26;102756.94;6174646;22;98677;-49
2023/03/01 09:02:05;;;;;;;4.60;3.67;;;;;;;2.32;57.10;102766.66;6174584;22;96902;-49
2023/03/01 09:04:31;;;;;;;6.17;4.00;;;;;;;2.42;57.32;102772.16;6176003;22;97154;-49
2023/03/01 09:06:56;;;;;;;4.07;3.67;;;;;;;2.54;57.14;102768.28;6175328;22;97876;-49
2023/03/01 09:09:22;;;;;;;5.67;3.90;;;;;;;2.66;57.06;102767.91;6174762;22;97684;-49
2023/03/01 09:11:49;;;;;;;4.73;3.30;;;;;;;2.77;57.05;102769.50;6175282;22;97643;-49
2023/03/01 09:14:15;;;;;;;5.67;2.87;;;;;;;2.92;57.00;102757.47;6175294;22;97009;-50
2023/03/01 09:16:40;;;;;;;3.93;2.97;;;;;;;3.09;57.14;102755.13;6147891;22;96636;-49
2023/03/01 09:19:06;;;;;;;5.33;3.37;;;;;;;3.22;56.99;102762.50;6175346;22;96998;-49
2023/03/01 09:21:31;;;;;;;7.73;3.70;;;;;;;3.38;57.00;102762.09;6174311;22;97230;-49
2023/03/01 09:23:58;;;;;;;6.57;3.50;;;;;;;3.54;57.04;102755.06;6175000;22;97380;-49
2023/03/01 09:26:24;;;;;;;3.10;2.80;;;;;;;3.72;56.89;102747.63;6147643;22;99333;-49
2023/03/01 09:28:52;;;;;;;4.23;3.43;;;;;;;3.90;56.66;102750.31;6175682;22;97662;-50
2023/03/01 09:31:20;;;;;;;3.73;3.20;;;;;;;4.10;56.90;102747.88;6175516;22;96784;-49
2023/03/01 09:33:52;;;;;;;2.73;2.53;;;;;;;4.30;56.71;102752.44;6175726;22;96790;-49
2023/03/01 09:36:20;;;;;;;2.67;2.47;;;;;;;4.47;56.51;102754.31;6174162;22;97214;-49
2023/03/01 09:38:46;;;;;;;3.47;1.90;;;;;;;4.65;56.63;102747.97;6174552;22;98344;-49
2023/03/01 09:41:17;;;;;;;2.80;2.20;;;;;;;4.86;56.52;102743.13;6175788;22;97305;-49
2023/03/01 09:43:47;;;;;;;2.43;1.90;;;;;;;5.00;55.93;102745.72;6175321;22;96787;-49
2023/03/01 09:46:16;;;;;;;2.60;2.23;;;;;;;5.20;55.70;102743.22;6148643;22;97474;-49
2023/03/01 09:48:50;;;;;;;2.43;1.90;;;;;;;5.35;55.62;102744.66;6175145;22;97571;-49
2023/03/01 09:51:26;;;;;;;2.33;2.03;;;;;;;5.50;55.94;102739.81;6175385;22;97126;-49
2023/03/01 09:53:54;;;;;;;2.00;1.80;;;;;;;5.61;55.60;102744.00;6175664;22;96869;-49
2023/03/01 09:56:29;;;;;;;2.20;2.00;;;;;;;5.76;55.45;102748.09;6174133;22;98567;-49
2023/03/01 09:58:57;;;;;;;2.77;1.80;;;;;;;5.88;55.30;102742.13;6175138;22;97144;-49
2023/03/01 10:01:40;;;;;;;1.90;1.80;;;;;;;5.99;55.16;102731.06;6174383;22;97008;-48
2023/03/01 10:04:28;;;;;;;1.90;1.33;;;;;;;6.10;54.59;102733.66;6145692;22;96729;-50
2023/03/01 10:07:02;;;;;;;1.90;1.63;;;;;;;6.18;54.69;102735.13;6144671;22;96843;-49
2023/03/01 10:09:32;;;;;;;1.87;1.50;;;;;;;6.21;53.58;102737.03;6145528;22;97140;-49
2023/03/01 10:12:00;;;;;;;1.50;1.40;;;;;;;6.28;54.29;102734.22;6144641;22;97109;-49
2023/03/01 10:14:35;;;;;;;2.20;1.50;;;;;;;6.41;53.67;102738.72;6144676;22;96787;-49
2023/03/01 10:17:36;;;;;;;1.03;0.87;;;;;;;6.55;52.79;102732.25;6117638;22;98482;-49
2023/03/01 10:20:24;;;;;;;1.47;1.20;;;;;;;6.64;53.35;102736.00;6145307;22;97103;-50
2023/03/01 10:22:52;;;;;;;5.23;1.57;;;;;;;6.62;53.68;102740.34;6145387;22;97019;-49
2023/03/01 10:25:48;;;;;;;1.47;1.13;;;;;;;6.71;52.93;102729.66;6145201;22;96848;-49
2023/03/01 10:28:42;;;;;;;1.67;1.20;;;;;;;6.80;51.54;102729.91;6143636;22;97172;-49
2023/03/01 10:31:14;;;;;;;5.53;1.73;;;;;;;6.80;53.07;102733.41;6143763;22;97278;-49
2023/03/01 10:33:40;;;;;;;1.63;1.10;;;;;;;6.90;53.26;102733.66;6145476;22;96834;-49
2023/03/01 10:36:06;;;;;;;1.53;1.43;;;;;;;6.97;53.43;102731.56;6145009;22;96859;-49
2023/03/01 10:38:48;;;;;;;1.47;1.37;;;;;;;7.08;51.91;102728.66;6144481;22;97461;-49
2023/03/01 10:41:13;;;;;;;4.03;1.27;;;;;;;7.14;53.36;102727.75;6144491;22;97006;-50
2023/03/01 10:43:48;;;;;;;1.57;1.10;;;;;;;7.21;51.48;102724.13;6145071;22;97062;-49
2023/03/01 10:46:34;;;;;;;2.03;1.10;;;;;;;7.22;50.09;102726.47;6144960;22;96687;-49
2023/03/01 10:49:16;;;;;;;1.13;1.03;;;;;;;7.23;50.86;102717.03;6144330;22;97047;-49
2023/03/01 10:51:43;;;;;;;2.93;1.30;;;;;;;7.29;52.93;102706.41;6144677;22;97545;-49
2023/03/01 10:54:21;;;;;;;1.70;1.60;;;;;;;7.35;50.21;102713.72;6143175;22;97159;-49
2023/03/01 10:56:48;;;;;;;2.77;1.47;;;;;;;7.43;52.30;102708.84;6144757;22;96918;-49
2023/03/01 10:59:30;;;;;;;1.60;1.50;;;;;;;7.47;50.91;102704.06;6144458;22;96494;-49
2023/03/01 11:02:32;;;;;;;1.43;1.33;;;;;;;7.52;50.43;102704.38;6148799;22;97154;-49
2023/03/01 11:05:15;;;;;;;4.07;0.97;;;;;;;7.62;51.73;102710.06;6174199;22;96502;-49
2023/03/01 11:07:54;;;;;;;2.43;1.60;;;;;;;7.68;50.16;102711.13;6174989;22;96701;-50
2023/03/01 11:10:32;;;;;;;4.53;1.60;;;;;;;7.76;51.18;102707.03;6173630;22;97935;-49
2023/03/01 11:13:16;;;;;;;3.40;1.27;;;;;;;7.84;49.44;102705.72;6173810;22;96967;-49
2023/03/01 11:15:42;;;;;;;2.27;1.10;;;;;;;7.88;50.02;102703.66;6174750;22;97105;-50
2023/03/01 11:18:21;;;;;;;1.70;1.10;;;;;;;7.97;49.74;102701.13;6174975;22;96861;-49
2023/03/01 11:20:49;;;;;;;2.20;1.13;;;;;;;8.02;50.60;102695.91;6174289;22;99231;-49
2023/03/01 11:23:16;;;;;;;5.63;1.50;;;;;;;8.17;50.65;102686.16;6174696;22;97253;-49
2023/03/01 11:26:03;;;;;;;2.23;1.30;;;;;;;8.35;48.46;102685.03;6175231;22;96636;-50
2023/03/01 11:28:30;;;;;;;1.20;1.10;;;;;;;8.45;49.74;102686.75;6174167;22;96666;-50
2023/03/01 11:31:11;;;;;;;1.73;1.50;;;;;;;8.59;46.45;102680.91;6174385;22;96761;-49
2023/03/01 11:33:52;;;;;;;1.60;0.90;;;;;;;8.70;42.76;102687.69;6173813;22;97311;-49
2023/03/01 11:36:48;;;;;;;1.17;1.07;;;;;;;8.88;46.58;102688.03;6174387;22;96889;-49